Time;durP1;ratioP1;P1;durP2;ratioP2;P2;SDS_P1;SDS_P2;PMS_P1;PMS_P2;Temp;Humidity;BMP_temperature;BMP_pressure;BME280_temperature;BME280_humidity;BME280_pressure;Samples;Min_cycle;Max_cycle;Signal;HPM_P1;HPM_P2
2022/08/02 00:02:03;;;;;;;;;;;;;;;;;;;;;
2022/08/02 00:22:00;;;;;;;9.00;8.80;;;18.80;99.90;;;;;;6149298;23;20327;-84
2022/08/02 00:24:29;;;;;;;8.95;8.75;;;18.70;99.90;;;;;;6166740;23;20205;-84
2022/08/02 00:27:02;;;;;;;8.80;8.60;;;18.70;99.90;;;;;;6167175;23;20208;-84
2022/08/02 00:29:32;;;;;;;9.07;8.85;;;18.70;99.90;;;;;;6167981;23;20208;-84
2022/08/02 00:31:59;;;;;;;8.90;8.70;;;18.70;99.90;;;;;;6177987;23;20211;-84
2022/08/02 00:34:27;;;;;;;9.05;8.82;;;18.60;99.90;;;;;;6170389;23;20357;-84
2022/08/02 00:36:57;;;;;;;8.60;8.40;;;18.60;99.90;;;;;;6170039;23;20228;-84
2022/08/02 00:39:26;;;;;;;8.77;8.57;;;18.60;99.90;;;;;;6170897;23;20204;-84
2022/08/02 00:41:55;;;;;;;8.80;8.60;;;18.60;99.90;;;;;;6168742;23;20270;-84
2022/08/02 00:44:26;;;;;;;8.70;8.50;;;18.60;99.90;;;;;;6168243;23;20231;-84
2022/08/02 00:46:57;;;;;;;9.00;8.80;;;18.60;99.90;;;;;;6168100;23;20204;-84
2022/08/02 00:49:25;;;;;;;9.20;8.90;;;18.50;99.90;;;;;;6167835;23;20200;-84
2022/08/02 00:51:53;;;;;;;8.65;8.45;;;18.50;99.90;;;;;;6167101;23;20196;-84
2022/08/02 00:54:23;;;;;;;8.90;8.70;;;18.50;99.90;;;;;;6167465;23;20201;-84
2022/08/02 00:56:53;;;;;;;8.88;8.68;;;18.50;99.90;;;;;;6167404;23;20223;-85
2022/08/02 00:59:22;;;;;;;9.20;8.90;;;18.50;99.90;;;;;;6167189;23;20192;-85
2022/08/02 01:01:54;;;;;;;8.80;8.60;;;18.60;99.90;;;;;;6168345;23;20275;-84
2022/08/02 01:04:23;;;;;;;8.80;8.60;;;18.50;99.90;;;;;;6169557;23;20200;-84
2022/08/02 01:06:51;;;;;;;8.85;8.65;;;18.60;99.90;;;;;;6167443;23;20196;-84
2022/08/02 01:09:20;;;;;;;8.77;8.57;;;18.50;99.90;;;;;;6166747;23;20278;-84
2022/08/02 01:11:49;;;;;;;9.00;8.80;;;18.50;99.90;;;;;;6167541;23;20255;-85
2022/08/02 01:14:18;;;;;;;8.88;8.68;;;18.50;99.90;;;;;;6173494;23;20200;-84
2022/08/02 01:16:57;;;;;;;8.82;8.63;;;18.50;99.90;;;;;;6181627;23;20299;-84
2022/08/02 01:19:37;;;;;;;8.95;8.75;;;18.50;99.90;;;;;;6191391;23;20172;-84
2022/08/02 01:22:24;;;;;;;9.00;8.80;;;18.50;99.90;;;;;;6190896;23;20200;-84
2022/08/02 01:25:21;;;;;;;8.95;8.75;;;18.50;99.90;;;;;;6189255;23;20179;-84
2022/08/02 01:28:17;;;;;;;9.27;8.98;;;18.50;99.90;;;;;;6179496;23;20265;-84
2022/08/02 01:33:42;;;;;;;8.77;8.57;;;18.50;99.90;;;;;;6168311;23;21003;-85
2022/08/02 01:36:19;;;;;;;8.73;8.52;;;18.40;99.90;;;;;;6171166;23;20195;-84
2022/08/02 01:38:50;;;;;;;8.70;8.50;;;18.40;99.90;;;;;;6167844;23;20256;-85
2022/08/02 01:41:26;;;;;;;8.80;8.60;;;18.30;99.90;;;;;;6167268;23;20204;-84
2022/08/02 01:44:05;;;;;;;8.60;8.40;;;18.30;99.90;;;;;;6167089;23;20188;-84
2022/08/02 01:46:34;;;;;;;8.70;8.50;;;18.30;99.90;;;;;;6166653;23;20219;-84
2022/08/02 01:49:05;;;;;;;8.77;8.57;;;18.30;99.90;;;;;;6167019;23;20203;-84
2022/08/02 01:54:29;;;;;;;8.98;8.77;;;18.30;99.90;;;;;;6167093;23;20185;-84
2022/08/02 01:56:58;;;;;;;8.60;8.40;;;18.30;99.90;;;;;;6167325;23;20204;-84
2022/08/02 01:59:38;;;;;;;8.70;8.50;;;18.20;99.90;;;;;;6169131;23;20204;-84
2022/08/02 02:02:09;;;;;;;8.80;8.60;;;18.20;99.90;;;;;;6169193;23;20211;-84
2022/08/02 02:04:38;;;;;;;8.77;8.57;;;18.10;99.90;;;;;;6167947;23;20188;-85
2022/08/02 02:07:07;;;;;;;8.75;8.55;;;18.10;99.90;;;;;;6167671;23;20243;-84
2022/08/02 02:09:43;;;;;;;8.40;8.20;;;18.00;99.90;;;;;;6172669;23;20220;-84
2022/08/02 02:12:14;;;;;;;8.50;8.30;;;18.00;99.90;;;;;;6167977;23;20230;-84
2022/08/02 02:14:45;;;;;;;8.70;8.50;;;17.90;99.90;;;;;;6167212;23;20288;-85
2022/08/02 02:17:14;;;;;;;9.00;8.80;;;17.80;99.90;;;;;;6167540;23;20216;-84
2022/08/02 02:19:44;;;;;;;8.90;8.70;;;17.70;99.90;;;;;;6166973;23;20197;-84
2022/08/02 02:22:12;;;;;;;8.90;8.70;;;17.60;99.90;;;;;;6166839;23;20243;-85
2022/08/02 02:24:39;;;;;;;8.80;8.60;;;17.60;99.90;;;;;;6166373;23;20193;-84
2022/08/02 02:27:09;;;;;;;9.05;8.77;;;17.70;99.90;;;;;;6166447;23;20207;-84
2022/08/02 02:29:49;;;;;;;8.80;8.60;;;17.70;99.90;;;;;;6167062;23;20239;-85
2022/08/02 02:32:18;;;;;;;9.00;8.80;;;17.70;99.90;;;;;;6166725;23;20204;-84
2022/08/02 02:34:48;;;;;;;8.80;8.60;;;17.70;99.90;;;;;;6166155;23;20203;-84
2022/08/02 02:37:26;;;;;;;8.50;8.30;;;17.80;99.90;;;;;;6166894;23;20275;-84
2022/08/02 02:39:55;;;;;;;8.60;8.40;;;17.80;99.90;;;;;;6167380;23;20188;-84
2022/08/02 02:42:32;;;;;;;8.70;8.50;;;17.80;99.90;;;;;;6166793;23;20246;-84
2022/08/02 02:45:10;;;;;;;8.65;8.45;;;17.80;99.90;;;;;;6166654;23;20239;-84
2022/08/02 02:47:40;;;;;;;8.70;8.50;;;17.80;99.90;;;;;;6166836;23;20208;-84
2022/08/02 02:50:10;;;;;;;8.70;8.50;;;17.70;99.90;;;;;;6166440;23;20275;-84
2022/08/02 02:52:39;;;;;;;8.65;8.45;;;17.70;99.90;;;;;;6166876;23;20220;-84
2022/08/02 02:55:09;;;;;;;8.38;8.18;;;17.70;99.90;;;;;;6165720;23;20192;-84
2022/08/02 02:57:38;;;;;;;8.20;8.00;;;17.70;99.90;;;;;;6166431;23;20259;-84
2022/08/02 03:01:26;;;;;;;8.40;8.20;;;17.70;99.90;;;;;;6167720;23;20267;-84
2022/08/02 03:03:05;;;;;;;8.10;7.90;;;17.60;99.90;;;;;;6174363;23;20239;-84
2022/08/02 03:05:33;;;;;;;8.18;7.97;;;17.60;99.90;;;;;;6185040;23;20188;-83
2022/08/02 03:08:02;;;;;;;8.60;8.40;;;17.60;99.90;;;;;;6188975;23;20192;-83
2022/08/02 03:10:31;;;;;;;8.30;8.10;;;17.60;99.90;;;;;;6189143;23;20200;-84
2022/08/02 03:13:01;;;;;;;8.13;7.93;;;17.60;99.90;;;;;;6190480;23;20249;-85
2022/08/02 03:15:39;;;;;;;8.60;8.40;;;17.50;99.90;;;;;;6189641;23;20188;-84
2022/08/02 03:18:09;;;;;;;8.35;8.15;;;17.50;99.90;;;;;;6190040;23;20169;-83
2022/08/02 03:20:39;;;;;;;8.30;8.10;;;17.40;99.90;;;;;;6189262;23;20204;-83
2022/08/02 03:23:09;;;;;;;9.00;8.75;;;17.40;99.90;;;;;;6188591;23;20199;-83
2022/08/02 03:25:39;;;;;;;9.20;8.90;;;17.40;99.90;;;;;;6184538;23;20199;-84
2022/08/02 03:28:08;;;;;;;8.80;8.60;;;17.40;99.90;;;;;;6169558;23;20706;-84
2022/08/02 03:30:49;;;;;;;9.10;8.80;;;17.30;99.90;;;;;;6172317;23;20211;-84
2022/08/02 03:33:17;;;;;;;9.10;8.80;;;17.30;99.90;;;;;;6169073;23;20220;-84
2022/08/02 03:35:48;;;;;;;8.95;8.73;;;17.30;99.90;;;;;;6176350;23;20220;-84
2022/08/02 03:41:02;;;;;;;9.38;9.07;;;17.30;99.90;;;;;;6168314;23;20207;-84
2022/08/02 03:43:31;;;;;;;9.35;9.05;;;17.30;99.90;;;;;;6169522;23;20192;-84
2022/08/02 03:46:09;;;;;;;9.30;9.00;;;17.30;99.90;;;;;;6168918;23;20193;-85
2022/08/02 03:48:38;;;;;;;9.20;8.90;;;17.20;99.90;;;;;;6168374;23;20203;-85
2022/08/02 03:51:08;;;;;;;9.30;9.00;;;17.20;99.90;;;;;;6167944;23;20232;-84
2022/08/02 03:53:38;;;;;;;9.15;8.85;;;17.20;99.90;;;;;;6168456;23;20215;-84
2022/08/02 03:56:07;;;;;;;9.18;8.88;;;17.20;99.90;;;;;;6168323;23;20199;-84
2022/08/02 03:58:36;;;;;;;9.10;8.80;;;17.20;99.90;;;;;;6170553;23;20192;-83
2022/08/02 04:01:17;;;;;;;8.90;8.70;;;17.10;99.90;;;;;;6176204;23;20208;-83
2022/08/02 04:03:45;;;;;;;9.10;8.80;;;17.10;99.90;;;;;;6173423;23;20215;-83
2022/08/02 04:06:13;;;;;;;8.82;8.63;;;17.10;99.90;;;;;;6186442;23;20224;-82
2022/08/02 04:08:42;;;;;;;8.80;8.60;;;17.10;99.90;;;;;;6189671;23;20181;-83
2022/08/02 04:13:59;;;;;;;9.30;9.00;;;17.00;99.90;;;;;;6171229;23;20188;-84
2022/08/02 04:16:40;;;;;;;9.10;8.80;;;17.00;99.90;;;;;;6168002;23;20212;-83
2022/08/02 04:19:17;;;;;;;9.10;8.80;;;16.90;99.90;;;;;;6168561;23;20196;-84
2022/08/02 04:21:46;;;;;;;9.20;8.90;;;16.90;99.90;;;;;;6168052;23;20228;-83
2022/08/02 04:24:17;;;;;;;9.27;8.98;;;16.90;99.90;;;;;;6167638;23;20224;-82
2022/08/02 04:26:45;;;;;;;9.23;8.93;;;16.90;99.90;;;;;;6167247;23;20199;-83
2022/08/02 04:29:14;;;;;;;9.27;8.98;;;16.90;99.90;;;;;;6166317;23;20204;-83
2022/08/02 04:31:46;;;;;;;9.30;9.00;;;16.90;99.90;;;;;;6166824;23;20209;-83
2022/08/02 04:34:14;;;;;;;9.50;9.20;;;17.00;99.90;;;;;;6167373;23;20192;-82
2022/08/02 04:36:42;;;;;;;9.30;9.00;;;17.00;99.90;;;;;;6167936;23;20196;-83
2022/08/02 04:39:12;;;;;;;8.82;8.63;;;17.00;99.90;;;;;;6188498;23;20215;-81
2022/08/02 04:41:41;;;;;;;9.13;8.82;;;17.00;99.90;;;;;;6189697;23;20188;-82
2022/08/02 04:44:11;;;;;;;9.30;9.00;;;17.00;99.90;;;;;;6189757;23;20239;-82
2022/08/02 04:46:39;;;;;;;9.05;8.75;;;17.00;99.90;;;;;;6177087;23;20248;-83
2022/08/02 04:49:27;;;;;;;9.13;8.82;;;17.00;99.90;;;;;;6174254;23;20216;-83
2022/08/02 04:51:59;;;;;;;8.70;8.50;;;17.10;99.90;;;;;;6171972;23;20223;-83
2022/08/02 04:54:27;;;;;;;9.10;8.80;;;17.10;99.90;;;;;;6169871;23;20279;-83
2022/08/02 04:56:55;;;;;;;8.80;8.60;;;17.20;99.90;;;;;;6169366;23;20227;-82
2022/08/02 04:59:24;;;;;;;9.18;8.88;;;17.30;99.90;;;;;;6169364;23;20260;-83
2022/08/02 05:01:54;;;;;;;9.20;8.90;;;17.40;99.90;;;;;;6168646;23;20216;-83
2022/08/02 05:04:25;;;;;;;9.18;8.88;;;17.50;99.90;;;;;;6168645;23;20196;-82
2022/08/02 05:06:52;;;;;;;9.23;8.93;;;17.50;99.90;;;;;;6168661;23;20196;-82
2022/08/02 05:09:22;;;;;;;9.25;8.95;;;17.70;99.90;;;;;;6168921;23;20197;-82
2022/08/02 05:11:51;;;;;;;9.40;9.10;;;17.70;99.90;;;;;;6168050;23;20287;-83
2022/08/02 05:14:21;;;;;;;9.38;9.07;;;17.80;99.90;;;;;;6168433;23;20279;-83
2022/08/02 05:16:50;;;;;;;9.27;8.98;;;17.90;99.90;;;;;;6167914;23;20255;-84
2022/08/02 05:19:20;;;;;;;9.55;9.25;;;18.00;99.90;;;;;;6168453;23;20228;-83
2022/08/02 05:21:54;;;;;;;9.05;8.75;;;18.10;99.90;;;;;;6170518;23;20204;-83
2022/08/02 05:24:21;;;;;;;8.80;8.60;;;18.10;99.90;;;;;;6167607;23;20197;-83
2022/08/02 05:26:51;;;;;;;9.00;8.70;;;18.20;99.90;;;;;;6168015;23;20196;-83
2022/08/02 05:29:20;;;;;;;8.85;8.63;;;18.30;99.90;;;;;;6167371;23;20188;-83
2022/08/02 05:31:49;;;;;;;9.10;8.80;;;18.30;99.90;;;;;;6167103;23;20287;-83
2022/08/02 05:34:18;;;;;;;9.10;8.80;;;18.30;99.90;;;;;;6167952;23;20287;-83
2022/08/02 05:36:48;;;;;;;8.95;8.70;;;18.40;99.90;;;;;;6167529;23;20196;-83
2022/08/02 05:42:04;;;;;;;9.30;9.00;;;18.50;99.90;;;;;;6165973;23;20196;-83
2022/08/02 05:44:33;;;;;;;9.50;9.20;;;18.60;99.90;;;;;;6167534;23;20231;-83
2022/08/02 05:47:03;;;;;;;9.15;8.85;;;18.70;99.90;;;;;;6168264;23;20196;-83
2022/08/02 05:49:32;;;;;;;8.90;8.70;;;18.80;99.90;;;;;;6168115;23;20498;-83
2022/08/02 05:52:10;;;;;;;8.82;8.63;;;19.00;99.90;;;;;;6167221;23;20200;-83
2022/08/02 05:54:50;;;;;;;8.93;8.70;;;19.00;99.90;;;;;;6166964;23;20240;-83
2022/08/02 05:57:38;;;;;;;8.90;8.70;;;19.10;99.90;;;;;;6173544;23;20194;-83
2022/08/02 06:00:15;;;;;;;9.30;9.00;;;19.10;99.90;;;;;;6174621;23;20208;-83
2022/08/02 06:03:15;;;;;;;9.30;9.00;;;19.30;99.90;;;;;;6174159;23;20196;-83
2022/08/02 06:05:51;;;;;;;9.10;8.80;;;19.40;99.90;;;;;;6171101;23;20235;-83
2022/08/02 06:08:26;;;;;;;9.20;8.90;;;19.50;99.90;;;;;;6170457;23;20192;-83
2022/08/02 06:11:04;;;;;;;9.50;9.20;;;19.60;99.90;;;;;;6170093;23;20259;-83
2022/08/02 06:13:34;;;;;;;9.18;8.88;;;19.60;99.90;;;;;;6169354;23;20719;-83
2022/08/02 06:16:04;;;;;;;9.57;9.27;;;19.60;99.90;;;;;;6169288;23;20205;-83
2022/08/02 06:18:33;;;;;;;9.63;9.32;;;19.70;99.90;;;;;;6169525;23;20263;-83
2022/08/02 06:23:29;;;;;;;9.98;9.68;;;20.00;99.90;;;;;;6197857;23;20195;-80
2022/08/02 06:26:00;;;;;;;9.95;9.65;;;20.10;99.90;;;;;;6202270;23;20282;-79
2022/08/02 06:28:27;;;;;;;9.70;9.40;;;20.30;99.90;;;;;;6203022;23;20226;-79
2022/08/02 06:30:55;;;;;;;9.70;9.40;;;20.30;99.90;;;;;;6202897;23;20218;-78
2022/08/02 06:33:24;;;;;;;10.20;9.90;;;20.40;99.90;;;;;;6173422;23;20228;-79
2022/08/02 06:36:01;;;;;;;9.80;9.50;;;20.40;99.90;;;;;;6172997;23;20210;-79
2022/08/02 06:38:33;;;;;;;9.70;9.40;;;20.50;99.90;;;;;;6174637;23;20273;-78
2022/08/02 06:41:08;;;;;;;10.00;9.70;;;20.60;99.90;;;;;;6171130;23;20208;-78
2022/08/02 06:43:45;;;;;;;10.10;9.80;;;20.70;99.90;;;;;;6171991;23;21059;-82
2022/08/02 06:46:14;;;;;;;10.00;9.70;;;20.60;99.90;;;;;;6170787;23;20298;-83
2022/08/02 06:48:42;;;;;;;10.02;9.73;;;20.70;99.90;;;;;;6169540;23;20196;-76
2022/08/02 06:51:10;;;;;;;9.95;9.65;;;20.90;99.90;;;;;;6169630;23;20291;-79
2022/08/02 06:53:38;;;;;;;9.95;9.65;;;21.10;99.90;;;;;;6170048;23;20204;-76
2022/08/02 06:56:07;;;;;;;9.63;9.32;;;21.30;99.90;;;;;;6165343;23;21061;-76
2022/08/02 06:58:34;;;;;;;10.00;9.70;;;21.50;99.90;;;;;;6164253;23;21011;-76
2022/08/02 07:01:05;;;;;;;10.05;9.75;;;21.50;99.90;;;;;;6165557;23;20259;-77
2022/08/02 07:03:34;;;;;;;10.00;9.70;;;21.70;99.90;;;;;;6164999;23;20207;-75
2022/08/02 07:06:02;;;;;;;10.20;9.90;;;21.70;99.90;;;;;;6164130;23;20227;-75
2022/08/02 07:08:31;;;;;;;10.50;10.20;;;21.80;99.90;;;;;;6164186;23;20216;-75
2022/08/02 07:10:59;;;;;;;10.40;10.10;;;21.90;99.90;;;;;;6163330;23;20286;-75
2022/08/02 07:13:29;;;;;;;10.20;9.90;;;22.10;99.90;;;;;;6164457;23;20255;-75
2022/08/02 07:15:57;;;;;;;10.52;10.23;;;22.10;99.90;;;;;;6163275;23;20333;-77
2022/08/02 07:18:25;;;;;;;10.40;10.10;;;22.20;99.90;;;;;;6167551;23;20215;-77
2022/08/02 07:20:53;;;;;;;10.40;10.10;;;22.20;99.90;;;;;;6165330;23;20204;-76
2022/08/02 07:23:22;;;;;;;10.30;10.00;;;22.30;99.90;;;;;;6164508;23;21026;-76
2022/08/02 07:25:50;;;;;;;10.60;10.30;;;22.40;99.90;;;;;;6166736;23;20275;-78
2022/08/02 07:28:17;;;;;;;10.60;10.30;;;22.50;99.90;;;;;;6171370;23;20214;-76
2022/08/02 07:30:46;;;;;;;10.40;10.10;;;22.50;99.90;;;;;;6174799;23;20220;-76
2022/08/02 07:33:14;;;;;;;10.50;10.20;;;22.60;99.90;;;;;;6167835;23;20236;-76
2022/08/02 07:35:42;;;;;;;10.27;9.98;;;22.70;99.90;;;;;;6163685;23;20278;-77
2022/08/02 07:38:09;;;;;;;9.88;9.57;;;22.90;99.90;;;;;;6167626;23;20203;-77
2022/08/02 07:40:37;;;;;;;9.68;9.38;;;23.10;99.90;;;;;;6165703;23;20227;-76
2022/08/02 07:43:05;;;;;;;10.00;9.70;;;23.20;99.90;;;;;;6165623;23;20214;-76
2022/08/02 07:45:33;;;;;;;10.23;9.93;;;23.30;99.90;;;;;;6165915;23;20210;-77
2022/08/02 07:48:02;;;;;;;10.30;10.00;;;23.40;99.90;;;;;;6175614;23;20228;-77
2022/08/02 07:50:30;;;;;;;10.50;10.20;;;23.50;99.90;;;;;;6164798;23;20327;-77
2022/08/02 07:52:57;;;;;;;10.50;10.20;;;23.60;99.90;;;;;;6164288;23;20214;-77
2022/08/02 07:55:25;;;;;;;11.00;10.70;;;23.60;99.90;;;;;;6163810;23;20268;-77
2022/08/02 07:57:53;;;;;;;10.88;10.57;;;23.70;99.90;;;;;;6164962;23;20275;-77
2022/08/02 08:00:21;;;;;;;10.80;10.50;;;23.90;99.90;;;;;;6166346;23;20201;-77
2022/08/02 08:02:49;;;;;;;10.45;10.15;;;24.00;99.90;;;;;;6164154;23;20230;-75
2022/08/02 08:05:17;;;;;;;10.65;10.35;;;24.20;99.90;;;;;;6163750;23;20211;-76
2022/08/02 08:07:45;;;;;;;10.68;10.38;;;24.30;99.90;;;;;;6163742;23;20225;-77
2022/08/02 08:10:12;;;;;;;10.90;10.60;;;24.50;99.90;;;;;;6164016;23;20249;-76
2022/08/02 08:12:40;;;;;;;10.80;10.50;;;24.70;99.90;;;;;;6164024;23;20208;-77
2022/08/02 08:15:09;;;;;;;10.90;10.60;;;24.80;99.90;;;;;;6164329;23;20294;-76
2022/08/02 08:17:37;;;;;;;10.95;10.65;;;24.90;99.90;;;;;;6162296;23;20196;-76
2022/08/02 08:20:06;;;;;;;10.52;10.23;;;24.90;99.90;;;;;;6165253;23;20279;-79
2022/08/02 08:22:35;;;;;;;10.63;10.32;;;25.00;99.90;;;;;;6163316;23;20704;-77
2022/08/02 08:25:03;;;;;;;10.70;10.40;;;25.10;99.90;;;;;;6162809;23;20295;-75
2022/08/02 08:27:30;;;;;;;10.50;10.20;;;25.10;99.90;;;;;;6162830;23;20208;-75
2022/08/02 08:29:57;;;;;;;10.50;10.20;;;25.30;99.90;;;;;;6162719;23;20259;-74
2022/08/02 08:32:25;;;;;;;10.70;10.40;;;25.00;99.90;;;;;;6162769;23;20212;-76
2022/08/02 08:34:53;;;;;;;10.65;10.35;;;25.10;99.90;;;;;;6162904;23;20189;-75
2022/08/02 08:37:20;;;;;;;10.85;10.55;;;25.30;99.90;;;;;;6162968;23;20299;-76
2022/08/02 08:39:50;;;;;;;10.40;10.10;;;25.50;99.90;;;;;;6162572;23;20240;-75
2022/08/02 08:42:17;;;;;;;10.40;10.10;;;25.50;99.90;;;;;;6163123;23;20220;-75
2022/08/02 08:44:45;;;;;;;10.30;10.00;;;25.60;99.90;;;;;;6162561;23;20223;-75
2022/08/02 08:47:13;;;;;;;10.32;10.02;;;25.70;99.90;;;;;;6162228;23;20248;-75
2022/08/02 08:49:45;;;;;;;10.00;9.70;;;25.70;99.90;;;;;;6165410;23;20216;-78
2022/08/02 08:52:13;;;;;;;10.20;9.90;;;25.80;99.90;;;;;;6168598;23;20320;-78
2022/08/02 08:54:44;;;;;;;10.18;9.88;;;26.30;99.90;;;;;;6169830;23;20231;-80
2022/08/02 08:57:14;;;;;;;10.23;9.93;;;26.20;99.90;;;;;;6173274;23;20208;-80
2022/08/02 08:59:42;;;;;;;10.90;10.60;;;26.70;99.90;;;;;;6172486;23;20208;-78
2022/08/02 09:02:12;;;;;;;11.07;10.77;;;27.00;99.90;;;;;;6177929;23;20204;-80
2022/08/02 09:04:40;;;;;;;11.20;10.90;;;27.30;99.90;;;;;;6180390;23;20211;-78
2022/08/02 09:07:07;;;;;;;11.32;11.02;;;27.40;99.90;;;;;;6185043;23;20208;-78
2022/08/02 09:09:36;;;;;;;11.32;11.02;;;27.60;99.90;;;;;;6176120;23;20219;-78
2022/08/02 09:12:16;;;;;;;11.43;11.13;;;28.00;99.90;;;;;;6172806;23;20228;-78
2022/08/02 09:14:45;;;;;;;10.75;10.45;;;28.00;99.90;;;;;;6174265;23;20236;-78
2022/08/02 09:17:13;;;;;;;10.90;10.60;;;28.20;99.90;;;;;;6171467;23;20236;-78
2022/08/02 09:19:41;;;;;;;10.38;10.07;;;28.30;99.90;;;;;;6171703;23;20208;-77
2022/08/02 09:22:11;;;;;;;10.48;10.18;;;28.00;99.90;;;;;;6169791;23;20260;-79
2022/08/02 09:24:45;;;;;;;10.63;10.32;;;27.80;99.90;;;;;;6174966;23;20196;-80
2022/08/02 09:27:19;;;;;;;10.70;10.40;;;27.90;99.90;;;;;;6181919;23;20207;-79
2022/08/02 09:29:48;;;;;;;10.98;10.68;;;27.80;99.90;;;;;;6184403;23;20191;-79
2022/08/02 09:32:17;;;;;;;10.95;10.65;;;28.00;99.90;;;;;;6183747;23;20224;-79
2022/08/02 09:34:53;;;;;;;11.10;10.80;;;28.50;99.90;;;;;;6183817;23;20224;-80
2022/08/02 09:37:28;;;;;;;11.05;10.75;;;28.80;99.90;;;;;;6180297;23;20199;-79
2022/08/02 09:39:58;;;;;;;10.57;10.27;;;28.70;99.90;;;;;;6185877;23;20206;-80
2022/08/02 09:42:28;;;;;;;10.60;10.30;;;29.00;99.90;;;;;;6187836;23;20279;-78
2022/08/02 09:44:58;;;;;;;10.77;10.48;;;29.10;99.90;;;;;;6186689;23;20196;-79
2022/08/02 09:47:27;;;;;;;10.68;10.38;;;29.20;99.90;;;;;;6187128;23;20220;-80
2022/08/02 09:49:57;;;;;;;10.82;10.52;;;29.40;99.90;;;;;;6186876;23;20265;-79
2022/08/02 09:52:28;;;;;;;10.80;10.50;;;29.60;99.90;;;;;;6187222;23;20208;-80
2022/08/02 09:54:56;;;;;;;10.77;10.48;;;29.80;99.90;;;;;;6186296;23;20200;-80
2022/08/02 09:57:32;;;;;;;10.82;10.52;;;30.00;99.90;;;;;;6187392;23;20252;-81
2022/08/02 10:00:00;;;;;;;10.90;10.60;;;30.30;99.90;;;;;;6187173;23;20183;-80
2022/08/02 10:02:27;;;;;;;10.98;10.68;;;30.40;99.90;;;;;;6181879;23;20247;-81
2022/08/02 10:04:57;;;;;;;11.20;10.90;;;30.40;99.90;;;;;;6167705;23;20202;-81
2022/08/02 10:07:24;;;;;;;10.80;10.50;;;30.70;99.90;;;;;;6172877;23;20207;-81
2022/08/02 10:09:52;;;;;;;10.25;9.95;;;31.00;99.90;;;;;;6175807;23;20211;-81
2022/08/02 10:12:21;;;;;;;10.80;10.50;;;31.00;99.90;;;;;;6171507;23;20201;-79
2022/08/02 10:14:53;;;;;;;10.75;10.45;;;31.20;99.90;;;;;;6168495;23;20200;-79
2022/08/02 10:17:22;;;;;;;10.45;10.15;;;31.60;99.90;;;;;;6169014;23;20188;-81
2022/08/02 10:19:50;;;;;;;10.63;10.32;;;31.80;99.90;;;;;;6168822;23;20239;-82
2022/08/02 10:22:18;;;;;;;10.70;10.40;;;31.80;99.90;;;;;;6169697;23;20238;-81
2022/08/02 10:24:46;;;;;;;11.10;10.80;;;31.60;99.90;;;;;;6169780;23;20200;-82
2022/08/02 10:27:18;;;;;;;10.98;10.68;;;31.70;99.90;;;;;;6168495;23;20231;-84
2022/08/02 10:29:53;;;;;;;10.98;10.68;;;31.60;99.90;;;;;;6166304;23;20263;-85
2022/08/02 10:32:29;;;;;;;11.02;10.73;;;31.50;99.90;;;;;;6169536;23;20226;-81
2022/08/02 10:35:02;;;;;;;11.05;10.75;;;31.50;99.90;;;;;;6182648;23;20206;-80
2022/08/02 10:37:38;;;;;;;11.20;10.90;;;31.10;99.90;;;;;;6184926;23;20203;-83
2022/08/02 10:40:21;;;;;;;11.60;11.20;;;30.50;99.90;;;;;;6188103;23;20183;-83
2022/08/02 10:42:58;;;;;;;11.50;11.10;;;30.40;99.90;;;;;;6186805;23;20204;-85
2022/08/02 10:45:26;;;;;;;11.20;10.90;;;30.80;99.90;;;;;;6186380;23;20207;-84
2022/08/02 10:48:10;;;;;;;11.18;10.88;;;31.30;99.90;;;;;;6185889;23;20211;-84
2022/08/02 10:51:08;;;;;;;11.00;10.70;;;31.60;99.90;;;;;;6187513;23;20187;-84
2022/08/02 10:53:37;;;;;;;11.13;10.82;;;31.70;99.90;;;;;;6188215;23;20207;-84
2022/08/02 10:56:06;;;;;;;11.05;10.75;;;32.00;99.90;;;;;;6180125;23;20204;-83
2022/08/02 10:58:36;;;;;;;10.55;10.25;;;32.20;99.90;;;;;;6185501;23;20212;-83
2022/08/02 11:01:06;;;;;;;10.65;10.35;;;32.50;99.90;;;;;;6184280;23;20184;-83
2022/08/02 11:03:44;;;;;;;10.70;10.40;;;32.50;99.90;;;;;;6182855;23;20208;-83
2022/08/02 11:06:14;;;;;;;10.77;10.48;;;32.80;99.90;;;;;;6183268;23;20203;-84
2022/08/02 11:08:42;;;;;;;10.80;10.50;;;32.60;99.90;;;;;;6185879;23;20188;-85
2022/08/02 11:11:21;;;;;;;11.18;10.88;;;32.10;99.90;;;;;;6175655;23;20287;-84
2022/08/02 11:14:08;;;;;;;11.80;11.40;;;32.00;99.90;;;;;;6174872;23;20259;-85
2022/08/02 11:17:12;;;;;;;11.70;11.30;;;32.40;99.90;;;;;;6173053;23;20314;-84
2022/08/02 11:20:28;;;;;;;11.23;10.93;;;33.00;99.90;;;;;;6172165;23;20192;-85
2022/08/02 11:23:42;;;;;;;11.30;11.00;;;33.20;99.90;;;;;;6174237;23;20212;-84
2022/08/02 11:26:45;;;;;;;11.80;11.40;;;33.00;99.90;;;;;;6169046;23;20188;-85
2022/08/02 11:29:15;;;;;;;11.40;11.10;;;33.40;99.90;;;;;;6168343;23;20194;-84
2022/08/02 11:31:47;;;;;;;11.38;11.07;;;33.80;99.90;;;;;;6168986;23;20232;-84
2022/08/02 11:34:16;;;;;;;11.13;10.82;;;34.10;99.90;;;;;;6169055;23;20240;-84
2022/08/02 11:37:00;;;;;;;11.07;10.77;;;34.00;99.90;;;;;;6168259;23;20638;-84
2022/08/02 11:39:30;;;;;;;11.43;11.13;;;33.80;99.90;;;;;;6168221;23;20219;-85
2022/08/02 11:42:00;;;;;;;11.05;10.75;;;33.40;99.90;;;;;;6167622;23;20280;-84
2022/08/02 11:44:29;;;;;;;11.13;10.82;;;33.10;99.90;;;;;;6167106;23;20196;-84
2022/08/02 11:46:59;;;;;;;11.43;11.07;;;32.40;99.90;;;;;;6167837;23;20204;-84
2022/08/02 11:49:28;;;;;;;11.20;10.90;;;31.90;99.90;;;;;;6167922;23;20224;-84
2022/08/02 11:52:06;;;;;;;11.00;10.70;;;31.40;99.90;;;;;;6166450;23;20200;-84
2022/08/02 11:54:39;;;;;;;11.40;11.10;;;31.10;99.90;;;;;;6166844;23;20219;-83
2022/08/02 11:57:15;;;;;;;11.55;11.15;;;30.80;99.90;;;;;;6167114;23;20303;-84
2022/08/02 11:59:45;;;;;;;10.98;10.68;;;30.70;99.90;;;;;;6169839;23;20224;-83
2022/08/02 12:02:13;;;;;;;11.40;11.10;;;31.10;99.90;;;;;;6167933;23;20208;-83
2022/08/02 12:04:53;;;;;;;11.75;11.35;;;31.70;99.90;;;;;;6167970;23;20215;-88
2022/08/02 12:07:58;;;;;;;11.77;11.38;;;32.60;99.90;;;;;;6169809;23;20199;-90
2022/08/02 12:13:21;;;;;;;11.35;11.05;;;33.90;99.90;;;;;;6165192;23;20200;-89
2022/08/02 12:19:17;;;;;;;11.00;10.70;;;34.00;99.90;;;;;;6167874;23;20196;-88
2022/08/02 13:07:37;;;;;;;10.90;10.60;;;36.40;99.90;;;;;;6051066;23;20202;-87
2022/08/02 13:42:27;;;;;;;10.50;10.20;;;36.10;99.90;;;;;;6178071;23;20282;-87
2022/08/02 13:44:56;;;;;;;10.63;10.32;;;36.10;99.90;;;;;;6238867;23;20191;-87
2022/08/02 13:47:26;;;;;;;10.80;10.50;;;36.20;99.90;;;;;;6229506;23;20202;-85
2022/08/02 13:49:56;;;;;;;10.90;10.60;;;36.20;99.90;;;;;;6230531;23;20191;-85
2022/08/02 13:52:27;;;;;;;10.90;10.60;;;36.30;99.90;;;;;;6230045;23;20210;-87
2022/08/02 13:54:54;;;;;;;10.93;10.63;;;36.30;99.90;;;;;;6229445;23;20195;-88
2022/08/02 13:57:32;;;;;;;11.00;10.70;;;36.10;99.90;;;;;;6227660;23;20195;-88
2022/08/02 14:00:02;;;;;;;10.82;10.52;;;35.50;99.90;;;;;;6228454;23;20191;-87
2022/08/02 14:02:32;;;;;;;10.90;10.60;;;35.90;99.90;;;;;;6227359;23;20203;-87
2022/08/02 14:05:01;;;;;;;11.00;10.70;;;36.10;99.90;;;;;;6227484;23;20191;-87
2022/08/02 14:07:30;;;;;;;10.80;10.50;;;35.70;99.90;;;;;;6227051;23;20195;-87
2022/08/02 14:10:11;;;;;;;10.98;10.68;;;35.30;99.90;;;;;;6228484;23;20221;-88
2022/08/02 14:12:59;;;;;;;10.70;10.40;;;34.90;99.90;;;;;;6228192;23;20209;-85
2022/08/02 14:15:26;;;;;;;10.70;10.40;;;34.20;99.90;;;;;;6235239;23;20226;-88
2022/08/02 14:17:55;;;;;;;10.80;10.50;;;33.90;99.90;;;;;;6247603;22;20206;-90
2022/08/02 14:20:41;;;;;;;10.98;10.68;;;33.50;99.90;;;;;;6232398;23;20199;-90
2022/08/02 14:23:11;;;;;;;11.20;10.90;;;33.40;99.90;;;;;;6229833;23;20254;-90
2022/08/02 14:25:41;;;;;;;11.00;10.70;;;33.30;99.90;;;;;;6232027;23;20191;-88
2022/08/02 14:28:12;;;;;;;10.90;10.60;;;33.30;99.90;;;;;;6230229;23;20203;-86
2022/08/02 14:30:41;;;;;;;10.75;10.45;;;33.40;99.90;;;;;;6231167;23;20191;-86
2022/08/02 14:33:09;;;;;;;10.70;10.40;;;33.30;99.90;;;;;;6230385;23;20203;-86
2022/08/02 14:35:38;;;;;;;10.93;10.63;;;33.20;99.90;;;;;;6229875;23;20222;-85
2022/08/02 14:38:07;;;;;;;10.90;10.60;;;33.10;99.90;;;;;;6230483;23;20199;-86
2022/08/02 14:40:41;;;;;;;11.10;10.80;;;33.60;99.90;;;;;;6231316;23;20215;-86
2022/08/02 14:44:02;;;;;;;10.98;10.68;;;34.20;99.90;;;;;;6233926;23;20202;-85
2022/08/02 14:46:11;;;;;;;11.20;10.90;;;34.40;99.90;;;;;;6231308;23;20198;-86
2022/08/02 14:49:00;;;;;;;11.00;10.70;;;34.60;99.90;;;;;;6237564;23;20268;-88
2022/08/02 14:51:29;;;;;;;11.18;10.88;;;34.90;99.90;;;;;;6241439;23;20199;-85
2022/08/02 14:53:59;;;;;;;11.45;11.15;;;35.00;99.90;;;;;;6242920;23;20183;-86
2022/08/02 14:56:29;;;;;;;11.00;10.70;;;34.70;99.90;;;;;;6247467;22;20194;-84
2022/08/02 14:59:08;;;;;;;10.85;10.55;;;34.00;99.90;;;;;;6241901;22;20179;-87
2022/08/02 15:01:36;;;;;;;11.10;10.80;;;33.70;99.90;;;;;;6234887;23;20214;-85